createdAt,value
2023-04-02T00:01:20.809Z,-1.20
2023-04-02T00:03:54.202Z,-1.20
2023-04-02T00:06:33.272Z,-1.20
2023-04-02T00:09:16.564Z,-1.20
2023-04-02T00:11:48.653Z,-2.00
2023-04-02T00:14:22.421Z,-1.30
2023-04-02T00:16:50.642Z,1.50
2023-04-02T00:19:41.628Z,-1.60
2023-04-02T00:22:18.282Z,-1.30
2023-04-02T00:24:46.224Z,-1.40
2023-04-02T00:27:14.960Z,-1.40
2023-04-02T00:29:51.049Z,-1.50
2023-04-02T00:32:28.117Z,-1.50
2023-04-02T00:34:57.697Z,-1.50
2023-04-02T00:37:28.848Z,-0.40
2023-04-02T00:40:02.432Z,-1.70
2023-04-02T00:42:34.243Z,-1.70
2023-04-02T00:45:03.060Z,-1.90
2023-04-02T00:47:39.162Z,-1.60
2023-04-02T00:50:12.731Z,-1.60
2023-04-02T00:52:41.602Z,-1.30
2023-04-02T00:55:24.882Z,-1.60
2023-04-02T00:57:53.396Z,-0.70
2023-04-02T01:00:39.138Z,-2.00
2023-04-02T01:03:30.728Z,-1.50
2023-04-02T01:06:24.252Z,-1.50
2023-04-02T01:09:21.456Z,-1.10
2023-04-02T01:12:14.361Z,-0.30
2023-04-02T01:14:50.629Z,-2.00
2023-04-02T01:17:39.096Z,-1.80
2023-04-02T01:20:34.736Z,-1.70
2023-04-02T01:23:13.548Z,-1.70
2023-04-02T01:26:01.717Z,-1.90
2023-04-02T01:28:51.912Z,-1.70
2023-04-02T01:31:19.730Z,-1.80
2023-04-02T01:33:48.519Z,-1.80
2023-04-02T01:36:27.548Z,-0.30
2023-04-02T01:39:25.396Z,-1.90
2023-04-02T01:42:21.906Z,-1.10
2023-04-02T01:44:52.279Z,-2.00
2023-04-02T01:47:23.536Z,-2.30
2023-04-02T01:49:57.452Z,-2.30
2023-04-02T01:52:39.725Z,-2.50
2023-04-02T01:55:15.583Z,-2.40
2023-04-02T01:57:47.230Z,-2.10
2023-04-02T02:00:16.978Z,-2.40
2023-04-02T02:02:48.746Z,-2.20
2023-04-02T02:05:19.393Z,-2.80
2023-04-02T02:07:47.262Z,-2.40
2023-04-02T02:10:33.421Z,-3.20
2023-04-02T02:13:01.208Z,-2.70
2023-04-02T02:15:31.892Z,-3.30
2023-04-02T02:18:06.781Z,-2.60
2023-04-02T02:20:35.337Z,-2.50
2023-04-02T02:23:04.694Z,-2.30
2023-04-02T02:25:34.388Z,-2.60
2023-04-02T02:28:17.411Z,-2.60
2023-04-02T02:30:53.224Z,-2.60
2023-04-02T02:33:46.795Z,-2.40
2023-04-02T02:36:33.715Z,-2.50
2023-04-02T02:39:32.470Z,-2.40
2023-04-02T02:42:11.736Z,-1.30
2023-04-02T02:44:47.929Z,-1.90
2023-04-02T02:47:36.638Z,-2.50
2023-04-02T02:50:09.062Z,-2.60
2023-04-02T02:52:38.510Z,-2.40
2023-04-02T02:55:17.859Z,-2.70
2023-04-02T02:57:49.726Z,-2.70
2023-04-02T03:00:19.775Z,-2.70
2023-04-02T03:02:48.090Z,-2.40
2023-04-02T03:05:25.262Z,-2.90
2023-04-02T03:07:56.851Z,-2.50
2023-04-02T03:10:38.060Z,-2.80
2023-04-02T03:13:33.302Z,-2.40
2023-04-02T03:16:36.805Z,-2.50
2023-04-02T03:19:28.252Z,-2.50
2023-04-02T03:22:12.882Z,-2.50
2023-04-02T03:25:02.302Z,-2.90
2023-04-02T03:27:41.851Z,-2.80
2023-04-02T03:30:33.759Z,-2.80
2023-04-02T03:33:06.804Z,-2.90
2023-04-02T03:35:37.469Z,-2.70
2023-04-02T03:38:13.981Z,-2.20
2023-04-02T03:40:56.374Z,-3.00
2023-04-02T03:43:27.350Z,-2.20
2023-04-02T03:46:13.659Z,-3.10
2023-04-02T03:48:55.211Z,-3.50
2023-04-02T03:51:22.600Z,-3.00
2023-04-02T03:53:50.344Z,-2.80
2023-04-02T03:56:31.962Z,-3.10
2023-04-02T03:59:21.211Z,-2.90
2023-04-02T04:01:56.352Z,-2.90
2023-04-02T04:04:27.473Z,-2.70
2023-04-02T04:06:57.109Z,-3.00
2023-04-02T04:09:33.761Z,-3.20
2023-04-02T04:12:35.065Z,-3.30
2023-04-02T04:15:09.855Z,-2.80
2023-04-02T04:18:04.594Z,-2.90
2023-04-02T04:20:46.341Z,-2.80
2023-04-02T04:23:20.372Z,-2.60
2023-04-02T04:25:50.691Z,-2.70
2023-04-02T04:28:31.676Z,-3.20
2023-04-02T04:31:18.143Z,-2.40
2023-04-02T04:33:55.806Z,-3.20
2023-04-02T04:36:29.929Z,-3.10
2023-04-02T04:39:07.699Z,-3.00
2023-04-02T04:41:39.809Z,-3.00
2023-04-02T04:44:22.399Z,-2.90
2023-04-02T04:47:11.026Z,-1.10
2023-04-02T04:49:51.846Z,-2.20
2023-04-02T04:52:34.703Z,-2.60
2023-04-02T04:55:02.335Z,-2.60
2023-04-02T04:57:37.419Z,-2.90
2023-04-02T05:00:45.664Z,-2.80
2023-04-02T05:03:36.153Z,-2.40
2023-04-02T05:06:20.092Z,-2.40
2023-04-02T05:08:51.477Z,-2.30
2023-04-02T05:11:26.832Z,-2.50
2023-04-02T05:14:00.755Z,-2.40
2023-04-02T05:16:39.956Z,-2.50
2023-04-02T05:19:29.496Z,-2.00
2023-04-02T05:22:28.598Z,-1.20
2023-04-02T05:24:59.284Z,-1.80
2023-04-02T05:27:44.103Z,-1.90
2023-04-02T05:30:23.993Z,-1.90
2023-04-02T05:32:59.077Z,-2.40
2023-04-02T05:35:34.843Z,-2.10
2023-04-02T05:38:03.161Z,-2.00
2023-04-02T05:40:40.147Z,-2.50
2023-04-02T05:43:15.861Z,-2.10
2023-04-02T05:45:51.845Z,-1.70
2023-04-02T05:48:22.337Z,-1.90
2023-04-02T05:50:53.117Z,-1.90
2023-04-02T05:53:45.484Z,-1.80
2023-04-02T05:56:13.292Z,-1.60
2023-04-02T05:58:45.508Z,-1.70
2023-04-02T06:01:41.321Z,-0.20
2023-04-02T06:04:30.040Z,-1.30
2023-04-02T06:07:39.069Z,-1.50
2023-04-02T06:10:29.191Z,-1.20
2023-04-02T06:13:03.921Z,-1.20
2023-04-02T06:15:33.538Z,-1.30
2023-04-02T06:18:08.499Z,-1.10
2023-04-02T06:20:36.449Z,-1.00
2023-04-02T06:23:10.862Z,0.90
2023-04-02T06:25:58.373Z,-1.00
2023-04-02T06:28:30.973Z,-0.80
2023-04-02T06:31:03.200Z,-0.60
2023-04-02T06:33:30.821Z,-1.20
2023-04-02T06:36:01.085Z,-0.50
2023-04-02T06:38:31.487Z,1.90
2023-04-02T06:41:02.956Z,1.50
2023-04-02T06:43:44.212Z,-0.70
2023-04-02T06:46:20.935Z,-0.40
2023-04-02T06:48:52.968Z,2.00
2023-04-02T06:51:24.461Z,0.10
2023-04-02T06:53:52.061Z,-0.40
2023-04-02T06:56:19.512Z,-0.30
2023-04-02T06:58:46.965Z,2.30
2023-04-02T07:01:24.197Z,0.10
2023-04-02T07:03:52.238Z,0.10
2023-04-02T07:06:21.841Z,2.40
2023-04-02T07:08:49.460Z,0.80
2023-04-02T07:11:20.929Z,1.50
2023-04-02T07:13:49.715Z,3.00
2023-04-02T07:16:23.139Z,2.50
2023-04-02T07:18:51.133Z,2.70
2023-04-02T07:21:18.897Z,1.30
2023-04-02T07:23:47.359Z,2.60
2023-04-02T07:26:17.488Z,2.50
2023-04-02T07:28:45.033Z,1.20
2023-04-02T07:31:19.643Z,2.60
2023-04-02T07:33:47.781Z,0.90
2023-04-02T07:36:18.450Z,1.40
2023-04-02T07:38:46.598Z,2.40
2023-04-02T07:41:15.067Z,2.10
2023-04-02T07:43:42.947Z,1.10
2023-04-02T07:46:12.099Z,3.30
2023-04-02T07:48:40.606Z,2.90
2023-04-02T07:51:23.101Z,3.50
2023-04-02T07:53:55.059Z,3.00
2023-04-02T07:56:27.553Z,2.40
2023-04-02T07:58:56.987Z,3.30
2023-04-02T08:01:26.837Z,2.30
2023-04-02T08:03:57.907Z,2.30
2023-04-02T08:06:26.820Z,3.90
2023-04-02T08:08:54.745Z,3.40
2023-04-02T08:11:22.465Z,2.50
2023-04-02T08:13:57.950Z,3.40
2023-04-02T08:19:07.853Z,2.20
2023-04-02T08:21:35.600Z,2.60
2023-04-02T08:24:03.923Z,2.30
2023-04-02T08:26:31.743Z,2.20
2023-04-02T08:31:44.169Z,2.60
2023-04-02T08:34:15.489Z,2.60
2023-04-02T08:42:36.760Z,3.60
2023-04-02T08:45:26.913Z,2.90
2023-04-02T08:50:42.606Z,3.90
2023-04-02T08:53:19.709Z,3.60
2023-04-02T08:56:08.644Z,2.80
2023-04-02T08:59:04.684Z,3.40
2023-04-02T09:01:54.292Z,3.10
2023-04-02T09:04:24.754Z,2.90
2023-04-02T09:06:55.885Z,2.80
2023-04-02T09:09:24.044Z,3.80
2023-04-02T09:11:53.919Z,3.80
2023-04-02T09:14:33.108Z,3.30
2023-04-02T09:17:05.859Z,3.90
2023-04-02T09:19:45.399Z,4.50
2023-04-02T09:22:23.663Z,3.70
2023-04-02T09:24:59.575Z,2.80
2023-04-02T09:27:32.888Z,3.70
2023-04-02T09:30:05.406Z,3.00
2023-04-02T09:32:43.926Z,3.10
2023-04-02T09:35:26.145Z,3.90
2023-04-02T09:38:24.255Z,3.80
2023-04-02T09:41:04.258Z,3.50
2023-04-02T09:43:38.671Z,3.20
2023-04-02T09:46:24.509Z,3.70
2023-04-02T09:49:01.463Z,3.40
2023-04-02T09:51:36.689Z,3.70
2023-04-02T09:54:04.169Z,3.10
2023-04-02T09:56:41.833Z,3.50
2023-04-02T09:59:18.052Z,3.10
2023-04-02T10:01:48.158Z,3.40
2023-04-02T10:04:48.155Z,3.20
2023-04-02T10:07:40.113Z,4.20
2023-04-02T10:10:31.959Z,3.10
2023-04-02T10:13:08.167Z,3.70
2023-04-02T10:15:43.704Z,4.30
2023-04-02T10:18:34.022Z,5.10
2023-04-02T10:21:04.752Z,4.80
2023-04-02T10:23:33.433Z,5.60
2023-04-02T10:26:43.830Z,4.30
2023-04-02T10:29:21.755Z,5.00
2023-04-02T10:32:13.192Z,6.10
2023-04-02T10:35:11.602Z,5.00
2023-04-02T10:37:51.044Z,5.30
2023-04-02T10:40:36.864Z,5.40
2023-04-02T10:43:26.284Z,5.40
2023-04-02T10:46:12.120Z,5.40
2023-04-02T10:48:45.726Z,5.40
2023-04-02T10:51:28.019Z,6.10
2023-04-02T10:54:11.383Z,5.50
2023-04-02T10:56:49.903Z,5.80
2023-04-02T10:59:30.272Z,5.90
2023-04-02T11:02:02.964Z,5.80
2023-04-02T11:04:44.214Z,5.90
2023-04-02T11:07:21.024Z,5.40
2023-04-02T11:09:53.824Z,5.60
2023-04-02T11:12:42.033Z,5.80
2023-04-02T11:15:19.909Z,5.50
2023-04-02T11:17:48.215Z,5.40
2023-04-02T11:20:50.154Z,5.80
2023-04-02T11:23:19.916Z,5.20
2023-04-02T11:25:47.933Z,5.40
2023-04-02T11:28:28.971Z,5.30
2023-04-02T11:30:57.857Z,4.70
2023-04-02T11:33:47.299Z,5.40
2023-04-02T11:36:50.398Z,5.40
2023-04-02T11:39:47.697Z,5.50
2023-04-02T11:42:33.050Z,5.80
2023-04-02T11:45:22.363Z,5.80
2023-04-02T11:48:02.351Z,5.70
2023-04-02T11:50:46.723Z,5.70
2023-04-02T11:53:20.771Z,5.30
2023-04-02T11:56:17.347Z,5.50
2023-04-02T11:59:14.246Z,5.20
2023-04-02T12:01:50.574Z,4.70
2023-04-02T12:04:37.824Z,5.00
2023-04-02T12:07:36.902Z,5.50
2023-04-02T12:10:28.136Z,4.40
2023-04-02T12:12:55.530Z,4.90
2023-04-02T12:15:38.211Z,5.10
2023-04-02T12:18:21.536Z,4.80
2023-04-02T12:20:56.107Z,5.20
2023-04-02T12:23:30.230Z,5.50
2023-04-02T12:25:59.077Z,5.20
2023-04-02T12:28:29.049Z,4.60
2023-04-02T12:31:14.573Z,5.20
2023-04-02T12:33:42.928Z,4.40
2023-04-02T12:36:16.250Z,4.80
2023-04-02T12:38:53.294Z,4.30
2023-04-02T12:41:33.515Z,4.30
2023-04-02T12:44:04.126Z,3.70
2023-04-02T12:46:35.968Z,3.80
2023-04-02T12:49:17.808Z,3.80
2023-04-02T12:51:45.275Z,3.90
2023-04-02T12:54:17.604Z,4.30
2023-04-02T12:56:45.552Z,4.20
2023-04-02T12:59:36.589Z,3.30
2023-04-02T13:02:33.507Z,3.70
2023-04-02T13:05:02.427Z,3.50
2023-04-02T13:07:33.403Z,4.10
2023-04-02T13:10:21.145Z,4.80
2023-04-02T13:12:56.556Z,4.00
2023-04-02T13:15:33.486Z,3.60
2023-04-02T13:18:12.903Z,3.70
2023-04-02T13:20:41.992Z,3.90
2023-04-02T13:23:32.908Z,3.60
2023-04-02T13:26:20.440Z,3.30
2023-04-02T13:29:17.783Z,3.70
2023-04-02T13:31:45.515Z,3.60
2023-04-02T13:34:13.005Z,3.70
2023-04-02T13:36:40.483Z,5.10
2023-04-02T13:39:08.000Z,4.60
2023-04-02T13:41:59.955Z,3.60
2023-04-02T13:44:37.622Z,3.40
2023-04-02T13:47:05.350Z,3.70
2023-04-02T13:49:32.959Z,4.40
2023-04-02T13:52:05.572Z,3.60
2023-04-02T13:54:37.542Z,3.80
2023-04-02T13:57:05.092Z,4.20
2023-04-02T13:59:32.487Z,4.20
2023-04-02T14:02:09.194Z,4.40
2023-04-02T14:04:42.524Z,3.80
2023-04-02T14:07:32.121Z,3.60
2023-04-02T14:10:22.234Z,3.80
2023-04-02T14:12:58.901Z,3.90
2023-04-02T14:15:53.071Z,4.10
2023-04-02T14:18:41.832Z,3.80
2023-04-02T14:21:21.260Z,3.80
2023-04-02T14:24:16.539Z,3.70
2023-04-02T14:26:54.465Z,4.50
2023-04-02T14:29:33.314Z,3.80
2023-04-02T14:32:15.084Z,3.80
2023-04-02T14:35:04.612Z,4.00
2023-04-02T14:37:58.534Z,3.80
2023-04-02T14:40:29.709Z,4.10
2023-04-02T14:43:00.866Z,4.40
2023-04-02T14:45:40.901Z,4.30
2023-04-02T14:48:50.473Z,3.60
2023-04-02T14:51:44.025Z,4.40
2023-04-02T14:54:13.256Z,3.90
2023-04-02T14:56:55.697Z,3.70
2023-04-02T14:59:31.490Z,4.40
2023-04-02T15:02:04.907Z,4.10
2023-04-02T15:04:43.633Z,4.30
2023-04-02T15:07:25.807Z,4.40
2023-04-02T15:10:24.233Z,3.60
2023-04-02T15:12:53.904Z,3.70
2023-04-02T15:15:40.775Z,3.40
2023-04-02T15:18:13.635Z,3.80
2023-04-02T15:20:54.290Z,4.20
2023-04-02T15:23:50.482Z,3.80
2023-04-02T15:26:45.696Z,3.80
2023-04-02T15:29:36.273Z,3.90
2023-04-02T15:32:34.698Z,3.80
2023-04-02T15:35:13.235Z,3.80
2023-04-02T15:37:59.351Z,3.80
2023-04-02T15:40:38.966Z,3.30
2023-04-02T15:43:30.535Z,3.30
2023-04-02T15:46:19.807Z,4.40
2023-04-02T15:48:53.141Z,3.60
2023-04-02T15:51:41.776Z,3.30
2023-04-02T15:54:31.197Z,3.60
2023-04-02T15:57:22.551Z,3.40
2023-04-02T15:59:57.199Z,3.90
2023-04-02T16:02:47.649Z,3.40
2023-04-02T16:05:26.359Z,4.00
2023-04-02T16:08:21.857Z,3.60
2023-04-02T16:10:49.284Z,3.40
2023-04-02T16:13:30.716Z,3.80
2023-04-02T16:16:10.336Z,3.40
2023-04-02T16:18:56.879Z,3.40
2023-04-02T16:21:29.313Z,2.80
2023-04-02T16:23:56.756Z,3.60
2023-04-02T16:26:32.511Z,3.20
2023-04-02T16:29:24.931Z,3.80
2023-04-02T16:32:04.516Z,3.20
2023-04-02T16:37:46.433Z,3.70
2023-04-02T16:40:35.399Z,3.40
2023-04-02T16:43:07.190Z,3.10
2023-04-02T16:45:52.884Z,3.50
2023-04-02T16:48:39.436Z,2.70
2023-04-02T16:51:29.059Z,3.00
2023-04-02T16:54:05.787Z,2.70
2023-04-02T16:57:07.880Z,3.10
2023-04-02T16:59:49.941Z,2.70
2023-04-02T17:02:58.412Z,2.90
2023-04-02T17:05:39.529Z,2.70
2023-04-02T17:08:27.539Z,2.40
2023-04-02T17:11:09.384Z,2.90
2023-04-02T17:13:43.481Z,2.50
2023-04-02T17:16:22.400Z,2.90
2023-04-02T17:18:53.232Z,3.90
2023-04-02T17:21:27.338Z,3.40
2023-04-02T17:23:58.134Z,2.40
2023-04-02T17:26:31.937Z,2.20
2023-04-02T17:29:06.528Z,3.40
2023-04-02T17:31:35.467Z,2.80
2023-04-02T17:34:16.396Z,3.20
2023-04-02T17:36:46.539Z,2.20
2023-04-02T17:39:44.203Z,2.10
2023-04-02T17:42:49.830Z,2.40
2023-04-02T17:45:29.846Z,2.00
2023-04-02T17:48:06.377Z,1.90
2023-04-02T17:50:46.226Z,1.30
2023-04-02T17:53:35.810Z,2.10
2023-04-02T17:56:30.928Z,2.00
2023-04-02T17:58:58.380Z,1.90
2023-04-02T18:01:35.332Z,3.10
2023-04-02T18:04:27.629Z,2.50
2023-04-02T18:07:07.444Z,1.20
2023-04-02T18:09:58.055Z,2.30
2023-04-02T18:12:53.374Z,1.80
2023-04-02T18:15:40.017Z,1.60
2023-04-02T18:18:33.784Z,2.10
2023-04-02T18:21:11.063Z,1.80
2023-04-02T18:23:47.291Z,1.40
2023-04-02T18:26:59.131Z,1.70
2023-04-02T18:29:44.741Z,1.70
2023-04-02T18:32:38.812Z,1.60
2023-04-02T18:35:25.298Z,3.20
2023-04-02T18:38:16.069Z,2.30
2023-04-02T18:40:49.836Z,1.80
2023-04-02T18:43:26.382Z,2.80
2023-04-02T18:46:13.572Z,2.50
2023-04-02T18:48:53.929Z,1.30
2023-04-02T18:51:23.889Z,1.60
2023-04-02T18:54:13.609Z,2.60
2023-04-02T18:56:42.448Z,1.90
2023-04-02T18:59:12.788Z,2.70
2023-04-02T19:01:44.455Z,2.30
2023-04-02T19:04:29.009Z,1.50
2023-04-02T19:07:14.564Z,1.80
2023-04-02T19:09:47.120Z,1.80
2023-04-02T19:12:20.384Z,1.20
2023-04-02T19:14:50.928Z,3.20
2023-04-02T19:17:22.522Z,2.30
2023-04-02T19:20:28.448Z,1.20
2023-04-02T19:23:17.845Z,1.00
2023-04-02T19:26:01.811Z,1.10
2023-04-02T19:29:00.343Z,1.00
2023-04-02T19:31:49.135Z,0.60
2023-04-02T19:34:31.614Z,1.00
2023-04-02T19:37:32.565Z,1.00
2023-04-02T19:40:03.044Z,1.00
2023-04-02T19:42:36.282Z,0.90
2023-04-02T19:45:04.409Z,1.00
2023-04-02T19:47:31.793Z,0.90
2023-04-02T19:49:59.269Z,0.40
2023-04-02T19:52:26.789Z,0.90
2023-04-02T19:54:54.253Z,1.00
2023-04-02T19:57:21.866Z,2.80
2023-04-02T19:59:49.593Z,0.80
2023-04-02T20:02:17.003Z,3.50
2023-04-02T20:04:44.441Z,2.60
2023-04-02T20:07:11.896Z,0.40
2023-04-02T20:09:39.280Z,0.60
2023-04-02T20:12:07.164Z,0.20
2023-04-02T20:14:34.596Z,1.50
2023-04-02T20:17:02.053Z,0.70
2023-04-02T20:19:29.673Z,-0.30
2023-04-02T20:21:57.429Z,2.70
2023-04-02T20:24:24.807Z,2.80
2023-04-02T20:26:52.248Z,0.70
2023-04-02T20:29:19.612Z,0.70
2023-04-02T20:31:47.447Z,2.30
2023-04-02T20:34:15.234Z,0.30
2023-04-02T20:36:42.740Z,0.40
2023-04-02T20:39:12.207Z,2.20
2023-04-02T20:41:39.694Z,2.00
2023-04-02T20:44:07.183Z,0.30
2023-04-02T20:46:34.850Z,2.50
2023-04-02T20:49:02.674Z,2.00
2023-04-02T20:51:30.034Z,0.70
2023-04-02T20:53:58.731Z,-0.10
2023-04-02T20:56:27.119Z,2.20
2023-04-02T20:58:54.506Z,2.70
2023-04-02T21:01:28.207Z,0.20
2023-04-02T21:03:58.082Z,-0.10
2023-04-02T21:06:27.667Z,0.10
2023-04-02T21:08:55.058Z,1.80
2023-04-02T21:11:23.196Z,0.00
2023-04-02T21:13:50.976Z,2.10
2023-04-02T21:16:30.161Z,0.00
2023-04-02T21:19:01.825Z,-0.40
2023-04-02T21:21:29.719Z,1.00
2023-04-02T21:23:59.778Z,-0.10
2023-04-02T21:26:29.086Z,-0.20
2023-04-02T21:28:56.783Z,0.10
2023-04-02T21:31:26.957Z,3.10
2023-04-02T21:33:57.013Z,2.50
2023-04-02T21:36:25.772Z,2.00
2023-04-02T21:38:54.345Z,1.90
2023-04-02T21:41:28.199Z,1.90
2023-04-02T21:43:57.180Z,1.40
2023-04-02T21:46:28.134Z,-0.40
2023-04-02T21:48:58.912Z,1.20
2023-04-02T21:51:31.889Z,0.20
2023-04-02T21:54:00.392Z,-0.30
2023-04-02T21:56:30.157Z,-0.30
2023-04-02T21:58:58.900Z,-0.20
2023-04-02T22:01:28.298Z,-0.40
2023-04-02T22:03:57.448Z,-0.40
2023-04-02T22:06:26.909Z,1.50
2023-04-02T22:08:59.696Z,-0.50
2023-04-02T22:11:36.439Z,-0.10
2023-04-02T22:14:04.581Z,-0.40
2023-04-02T22:16:34.439Z,-0.60
2023-04-02T22:19:04.710Z,1.40
2023-04-02T22:21:32.566Z,-0.40
2023-04-02T22:24:05.227Z,1.70
2023-04-02T22:26:34.070Z,-0.30
2023-04-02T22:29:02.314Z,-0.70
2023-04-02T22:31:33.550Z,1.80
2023-04-02T22:34:01.969Z,0.40
2023-04-02T22:36:30.125Z,0.10
2023-04-02T22:38:59.084Z,-0.70
2023-04-02T22:41:29.032Z,1.60
2023-04-02T22:43:57.752Z,-0.30
2023-04-02T22:46:26.782Z,2.10
2023-04-02T22:48:54.879Z,1.50
2023-04-02T22:51:23.319Z,1.20
2023-04-02T22:53:53.192Z,0.90
2023-04-02T22:56:27.683Z,-0.50
2023-04-02T22:58:55.454Z,-0.50
2023-04-02T23:01:25.949Z,0.80
2023-04-02T23:03:55.032Z,-0.70
2023-04-02T23:06:23.837Z,0.60
2023-04-02T23:08:51.829Z,-0.70
2023-04-02T23:11:22.877Z,-0.50
2023-04-02T23:13:53.077Z,0.40
2023-04-02T23:16:22.811Z,0.30
2023-04-02T23:18:51.523Z,-0.70
2023-04-02T23:21:20.144Z,-0.90
2023-04-02T23:23:48.482Z,-0.80
2023-04-02T23:26:21.369Z,-1.90
2023-04-02T23:28:49.891Z,0.00
2023-04-02T23:31:19.916Z,-0.70
2023-04-02T23:33:47.357Z,1.50
2023-04-02T23:36:20.853Z,1.20
2023-04-02T23:38:48.480Z,1.80
2023-04-02T23:41:16.880Z,-0.90
2023-04-02T23:43:44.698Z,1.50
2023-04-02T23:46:12.207Z,-1.10
2023-04-02T23:48:39.928Z,-0.80
2023-04-02T23:51:07.450Z,1.50
2023-04-02T23:53:35.542Z,-1.00
2023-04-02T23:56:03.094Z,-0.50
2023-04-02T23:58:30.553Z,-0.80
